Terminal Aerodrome Forecast
Issued by NWS Sterling, VA

Current Version | Previous Version | Text Only | Print | Product List | Glossary Off
Versions: 1 2 3 4 5 6 7 8 9 10 11 12 13 14 15 16 17 18 19 20 21 22

000
FTUS41 KLWX 240535
TAFDCA
TAF
KDCA 240535Z 2406/2506 09008KT 6SM -RA SCT025 OVC050
     FM241200 05012G20KT 6SM -RA SCT025 OVC050
     FM242200 05012G20KT 5SM -RA BKN015 OVC025
     FM250100 04010G18KT 3SM -RA BR BKN008 OVC015=

USA.gov is the U.S. government's official web portal to all federal, state and local government web resources and services.